Terminal Aerodrome Forecast
Issued by NWS

Home | Current Version | Previous Version | Text Only | Print | Product List | Glossary On
Versions: 1 2 3 4 5 6 7 8 9 10 11 12 13 14 15
000
FTUS45 KPSR 241132
TAFIPL
TAF
KIPL 241132Z 2412/2512 14008KT P6SM FEW100 SCT150 BKN250
     FM241500 14010KT P6SM VCTS FEW080CB BKN150 BKN200
     FM242200 14008KT P6SM FEW100 BKN150 BKN250=

USA.gov is the U.S. government's official web portal to all federal, state and local government web resources and services.